sensor_id;sensor_type;location;lat;lon;timestamp;pressure;altitude;pressure_sealevel;temperature;humidity
9460;BME280;4768;42.664;23.240;2023-05-23T00:01:52;-9692.00;;;9.88;100.00
9460;BME280;4768;42.664;23.240;2023-05-23T00:04:22;-9693.56;;;9.93;100.00
9460;BME280;4768;42.664;23.240;2023-05-23T00:06:51;-9695.00;;;9.98;100.00
9460;BME280;4768;42.664;23.240;2023-05-23T00:09:18;-9695.00;;;9.98;100.00
9460;BME280;4768;42.664;23.240;2023-05-23T00:11:46;-9695.69;;;10.01;100.00
9460;BME280;4768;42.664;23.240;2023-05-23T00:14:14;-9693.72;;;9.94;100.00
9460;BME280;4768;42.664;23.240;2023-05-23T00:16:41;-9691.28;;;9.85;100.00
9460;BME280;4768;42.664;23.240;2023-05-23T00:19:09;-9693.41;;;9.93;100.00
9460;BME280;4768;42.664;23.240;2023-05-23T00:21:36;-9695.13;;;9.99;100.00
9460;BME280;4768;42.664;23.240;2023-05-23T00:24:03;-9692.00;;;9.88;100.00
9460;BME280;4768;42.664;23.240;2023-05-23T00:26:30;-9690.31;;;9.82;100.00
9460;BME280;4768;42.664;23.240;2023-05-23T00:29:00;-9682.66;;;9.55;100.00
9460;BME280;4768;42.664;23.240;2023-05-23T00:31:27;-9682.06;;;9.53;100.00
9460;BME280;4768;42.664;23.240;2023-05-23T00:33:53;-9683.78;;;9.59;100.00
9460;BME280;4768;42.664;23.240;2023-05-23T00:36:20;-9684.63;;;9.62;100.00
9460;BME280;4768;42.664;23.240;2023-05-23T00:38:47;-9685.34;;;9.64;100.00
9460;BME280;4768;42.664;23.240;2023-05-23T00:41:14;-9688.03;;;9.74;100.00
9460;BME280;4768;42.664;23.240;2023-05-23T00:43:43;-9687.31;;;9.71;100.00
9460;BME280;4768;42.664;23.240;2023-05-23T00:46:13;-9688.88;;;9.77;100.00
9460;BME280;4768;42.664;23.240;2023-05-23T00:48:40;-9689.03;;;9.77;100.00
9460;BME280;4768;42.664;23.240;2023-05-23T00:51:07;-9688.88;;;9.77;100.00
9460;BME280;4768;42.664;23.240;2023-05-23T00:53:34;-9688.88;;;9.77;100.00
9460;BME280;4768;42.664;23.240;2023-05-23T00:56:01;-9687.59;;;9.72;100.00
9460;BME280;4768;42.664;23.240;2023-05-23T00:58:29;-9686.03;;;9.67;100.00
9460;BME280;4768;42.664;23.240;2023-05-23T01:00:56;-9684.63;;;9.62;100.00
9460;BME280;4768;42.664;23.240;2023-05-23T01:03:25;-9685.47;;;9.65;100.00
9460;BME280;4768;42.664;23.240;2023-05-23T01:05:53;-9685.06;;;9.63;100.00
9460;BME280;4768;42.664;23.240;2023-05-23T01:08:20;-9684.63;;;9.62;100.00
9460;BME280;4768;42.664;23.240;2023-05-23T01:10:47;-9684.06;;;9.60;100.00
9460;BME280;4768;42.664;23.240;2023-05-23T01:13:20;-9683.78;;;9.59;100.00
9460;BME280;4768;42.664;23.240;2023-05-23T01:15:57;-9681.22;;;9.50;100.00
9460;BME280;4768;42.664;23.240;2023-05-23T01:18:30;-9680.78;;;9.49;100.00
9460;BME280;4768;42.664;23.240;2023-05-23T01:21:02;-9682.06;;;9.53;100.00
9460;BME280;4768;42.664;23.240;2023-05-23T01:23:57;-9682.66;;;9.55;100.00
9460;BME280;4768;42.664;23.240;2023-05-23T01:26:32;-9682.50;;;9.55;100.00
9460;BME280;4768;42.664;23.240;2023-05-23T01:29:08;-9680.22;;;9.47;100.00
9460;BME280;4768;42.664;23.240;2023-05-23T01:31:39;-9676.13;;;9.32;100.00
9460;BME280;4768;42.664;23.240;2023-05-23T01:34:08;-9677.38;;;9.37;100.00
9460;BME280;4768;42.664;23.240;2023-05-23T01:36:39;-9677.38;;;9.37;100.00
9460;BME280;4768;42.664;23.240;2023-05-23T01:39:06;-9679.38;;;9.44;100.00
9460;BME280;4768;42.664;23.240;2023-05-23T01:41:32;-9679.94;;;9.46;100.00
9460;BME280;4768;42.664;23.240;2023-05-23T01:43:59;-9677.81;;;9.38;100.00
9460;BME280;4768;42.664;23.240;2023-05-23T01:46:28;-9677.69;;;9.38;100.00
9460;BME280;4768;42.664;23.240;2023-05-23T01:48:59;-9678.53;;;9.41;100.00
9460;BME280;4768;42.664;23.240;2023-05-23T01:51:26;-9677.38;;;9.37;100.00
9460;BME280;4768;42.664;23.240;2023-05-23T01:53:53;-9677.53;;;9.37;100.00
9460;BME280;4768;42.664;23.240;2023-05-23T01:56:20;-9674.13;;;9.25;100.00
9460;BME280;4768;42.664;23.240;2023-05-23T01:58:47;-9675.13;;;9.29;100.00
9460;BME280;4768;42.664;23.240;2023-05-23T02:01:14;-9675.41;;;9.30;100.00
9460;BME280;4768;42.664;23.240;2023-05-23T02:03:42;-9675.41;;;9.30;100.00
9460;BME280;4768;42.664;23.240;2023-05-23T02:06:09;-9675.25;;;9.29;100.00
9460;BME280;4768;42.664;23.240;2023-05-23T02:08:36;-9675.56;;;9.30;100.00
9460;BME280;4768;42.664;23.240;2023-05-23T02:11:03;-9674.13;;;9.25;100.00
9460;BME280;4768;42.664;23.240;2023-05-23T02:13:29;-9673.72;;;9.24;100.00
9460;BME280;4768;42.664;23.240;2023-05-23T02:15:56;-9671.88;;;9.17;100.00
9460;BME280;4768;42.664;23.240;2023-05-23T02:18:23;-9671.72;;;9.17;100.00
9460;BME280;4768;42.664;23.240;2023-05-23T02:20:51;-9667.91;;;9.04;100.00
9460;BME280;4768;42.664;23.240;2023-05-23T02:23:18;-9664.78;;;8.93;100.00
9460;BME280;4768;42.664;23.240;2023-05-23T02:25:45;-9665.06;;;8.94;100.00
9460;BME280;4768;42.664;23.240;2023-05-23T02:28:12;-9663.50;;;8.88;100.00
9460;BME280;4768;42.664;23.240;2023-05-23T02:30:38;-9662.38;;;8.84;100.00
9460;BME280;4768;42.664;23.240;2023-05-23T02:33:05;-9663.50;;;8.88;100.00
9460;BME280;4768;42.664;23.240;2023-05-23T02:35:33;-9663.78;;;8.89;100.00
9460;BME280;4768;42.664;23.240;2023-05-23T02:38:01;-9663.94;;;8.90;100.00
9460;BME280;4768;42.664;23.240;2023-05-23T02:40:28;-9663.94;;;8.90;100.00
9460;BME280;4768;42.664;23.240;2023-05-23T02:42:54;-9661.50;;;8.81;100.00
9460;BME280;4768;42.664;23.240;2023-05-23T02:45:22;-9661.66;;;8.82;100.00
9460;BME280;4768;42.664;23.240;2023-05-23T02:47:49;-9663.06;;;8.87;100.00
9460;BME280;4768;42.664;23.240;2023-05-23T02:50:16;-9663.34;;;8.88;100.00
9460;BME280;4768;42.664;23.240;2023-05-23T02:52:42;-9663.78;;;8.89;100.00
9460;BME280;4768;42.664;23.240;2023-05-23T02:55:10;-9662.22;;;8.84;100.00
9460;BME280;4768;42.664;23.240;2023-05-23T02:57:37;-9662.66;;;8.85;100.00
9460;BME280;4768;42.664;23.240;2023-05-23T03:00:05;-9658.97;;;8.72;100.00
9460;BME280;4768;42.664;23.240;2023-05-23T03:02:34;-9657.25;;;8.67;100.00
9460;BME280;4768;42.664;23.240;2023-05-23T03:05:00;-9656.41;;;8.64;100.00
9460;BME280;4768;42.664;23.240;2023-05-23T03:07:28;-9658.81;;;8.72;100.00
9460;BME280;4768;42.664;23.240;2023-05-23T03:09:58;-9660.09;;;8.76;100.00
9460;BME280;4768;42.664;23.240;2023-05-23T03:12:26;-9664.50;;;8.92;100.00
9460;BME280;4768;42.664;23.240;2023-05-23T03:14:53;-9663.50;;;8.88;100.00
9460;BME280;4768;42.664;23.240;2023-05-23T03:17:20;-9660.81;;;8.79;100.00
9460;BME280;4768;42.664;23.240;2023-05-23T03:19:46;-9663.63;;;8.89;100.00
9460;BME280;4768;42.664;23.240;2023-05-23T03:22:13;-9660.38;;;8.77;100.00
9460;BME280;4768;42.664;23.240;2023-05-23T03:24:40;-9659.25;;;8.73;100.00
9460;BME280;4768;42.664;23.240;2023-05-23T03:27:07;-9661.38;;;8.81;100.00
9460;BME280;4768;42.664;23.240;2023-05-23T03:29:35;-9662.38;;;8.84;100.00
9460;BME280;4768;42.664;23.240;2023-05-23T03:32:02;-9663.94;;;8.90;100.00
9460;BME280;4768;42.664;23.240;2023-05-23T03:34:28;-9667.19;;;9.01;100.00
9460;BME280;4768;42.664;23.240;2023-05-23T03:36:57;-9667.31;;;9.02;100.00
9460;BME280;4768;42.664;23.240;2023-05-23T03:39:24;-9668.19;;;9.05;100.00
9460;BME280;4768;42.664;23.240;2023-05-23T03:41:50;-9668.75;;;9.07;100.00
9460;BME280;4768;42.664;23.240;2023-05-23T03:44:17;-9672.72;;;9.20;100.00
9460;BME280;4768;42.664;23.240;2023-05-23T03:46:45;-9677.53;;;9.37;100.00
9460;BME280;4768;42.664;23.240;2023-05-23T03:49:12;-9676.13;;;9.32;100.00
9460;BME280;4768;42.664;23.240;2023-05-23T03:51:39;-9675.41;;;9.30;100.00
9460;BME280;4768;42.664;23.240;2023-05-23T03:54:06;-9676.41;;;9.33;100.00
9460;BME280;4768;42.664;23.240;2023-05-23T03:56:32;-9676.13;;;9.32;100.00
9460;BME280;4768;42.664;23.240;2023-05-23T03:58:59;-9676.81;;;9.35;100.00
9460;BME280;4768;42.664;23.240;2023-05-23T04:01:26;-9676.53;;;9.34;100.00
9460;BME280;4768;42.664;23.240;2023-05-23T04:03:54;-9679.53;;;9.44;100.00
9460;BME280;4768;42.664;23.240;2023-05-23T04:06:21;-9681.78;;;9.52;100.00
9460;BME280;4768;42.664;23.240;2023-05-23T04:08:47;-9684.47;;;9.62;100.00
9460;BME280;4768;42.664;23.240;2023-05-23T04:11:14;-9687.59;;;9.72;100.00
9460;BME280;4768;42.664;23.240;2023-05-23T04:13:41;-9690.16;;;9.81;100.00
9460;BME280;4768;42.664;23.240;2023-05-23T04:16:08;-9690.44;;;9.82;100.00
9460;BME280;4768;42.664;23.240;2023-05-23T04:18:35;-9689.44;;;9.79;100.00
9460;BME280;4768;42.664;23.240;2023-05-23T04:21:05;-9684.91;;;9.63;100.00
9460;BME280;4768;42.664;23.240;2023-05-23T04:23:31;-9687.03;;;9.70;100.00
9460;BME280;4768;42.664;23.240;2023-05-23T04:25:58;-9690.31;;;9.82;100.00
9460;BME280;4768;42.664;23.240;2023-05-23T04:28:25;-9688.88;;;9.77;100.00
9460;BME280;4768;42.664;23.240;2023-05-23T04:30:52;-9689.44;;;9.79;100.00
9460;BME280;4768;42.664;23.240;2023-05-23T04:33:18;-9689.03;;;9.77;100.00
9460;BME280;4768;42.664;23.240;2023-05-23T04:35:45;-9688.88;;;9.77;100.00
9460;BME280;4768;42.664;23.240;2023-05-23T04:38:15;-9690.00;;;9.81;100.00
9460;BME280;4768;42.664;23.240;2023-05-23T04:40:42;-9690.59;;;9.83;100.00
9460;BME280;4768;42.664;23.240;2023-05-23T04:43:08;-9692.84;;;9.91;100.00
9460;BME280;4768;42.664;23.240;2023-05-23T04:45:38;-9691.44;;;9.86;100.00
9460;BME280;4768;42.664;23.240;2023-05-23T04:48:06;-9692.00;;;9.88;100.00
9460;BME280;4768;42.664;23.240;2023-05-23T04:50:33;-9692.84;;;9.91;100.00
9460;BME280;4768;42.664;23.240;2023-05-23T04:53:00;-9690.44;;;9.82;100.00
9460;BME280;4768;42.664;23.240;2023-05-23T04:55:28;-9693.72;;;9.94;100.00
9460;BME280;4768;42.664;23.240;2023-05-23T04:57:58;-9687.19;;;9.71;100.00
9460;BME280;4768;42.664;23.240;2023-05-23T05:00:25;-9688.75;;;9.76;100.00
9460;BME280;4768;42.664;23.240;2023-05-23T05:02:52;-9687.31;;;9.71;100.00
9460;BME280;4768;42.664;23.240;2023-05-23T05:05:19;-9688.59;;;9.76;100.00
9460;BME280;4768;42.664;23.240;2023-05-23T05:07:45;-9689.31;;;9.78;100.00
9460;BME280;4768;42.664;23.240;2023-05-23T05:10:13;-9694.84;;;9.98;100.00
9460;BME280;4768;42.664;23.240;2023-05-23T05:12:42;-9699.97;;;10.15;100.00
9460;BME280;4768;42.664;23.240;2023-05-23T05:15:10;-9701.22;;;10.20;100.00
9460;BME280;4768;42.664;23.240;2023-05-23T05:17:37;-9701.94;;;10.22;100.00
9460;BME280;4768;42.664;23.240;2023-05-23T05:20:05;-9700.94;;;10.19;100.00
9460;BME280;4768;42.664;23.240;2023-05-23T05:22:33;-9693.28;;;9.92;100.00
9460;BME280;4768;42.664;23.240;2023-05-23T05:25:01;-9698.81;;;10.12;100.00
9460;BME280;4768;42.664;23.240;2023-05-23T05:27:28;-9702.22;;;10.23;100.00
9460;BME280;4768;42.664;23.240;2023-05-23T05:29:56;-9703.94;;;10.29;100.00
9460;BME280;4768;42.664;23.240;2023-05-23T05:32:28;-9699.66;;;10.14;100.00
9460;BME280;4768;42.664;23.240;2023-05-23T05:34:58;-9701.53;;;10.21;100.00
9460;BME280;4768;42.664;23.240;2023-05-23T05:37:25;-9698.69;;;10.11;100.00
9460;BME280;4768;42.664;23.240;2023-05-23T05:39:51;-9697.13;;;10.06;100.00
9460;BME280;4768;42.664;23.240;2023-05-23T05:42:19;-9707.63;;;10.42;100.00
9460;BME280;4768;42.664;23.240;2023-05-23T05:44:46;-9705.91;;;10.36;100.00
9460;BME280;4768;42.664;23.240;2023-05-23T05:47:14;-9709.88;;;10.50;100.00
9460;BME280;4768;42.664;23.240;2023-05-23T05:49:41;-9709.31;;;10.48;100.00
9460;BME280;4768;42.664;23.240;2023-05-23T05:52:08;-9718.69;;;10.81;100.00
9460;BME280;4768;42.664;23.240;2023-05-23T05:54:35;-9718.53;;;10.80;100.00
9460;BME280;4768;42.664;23.240;2023-05-23T05:57:01;-9720.38;;;10.87;100.00
9460;BME280;4768;42.664;23.240;2023-05-23T05:59:28;-9713.72;;;10.63;100.00
9460;BME280;4768;42.664;23.240;2023-05-23T06:01:55;-9720.53;;;10.87;100.00
9460;BME280;4768;42.664;23.240;2023-05-23T06:04:23;-9730.03;;;11.20;100.00
9460;BME280;4768;42.664;23.240;2023-05-23T06:06:50;-9738.28;;;11.49;100.00
9460;BME280;4768;42.664;23.240;2023-05-23T06:09:17;-9745.53;;;11.74;100.00
9460;BME280;4768;42.664;23.240;2023-05-23T06:11:44;-9745.25;;;11.73;100.00
9460;BME280;4768;42.664;23.240;2023-05-23T06:14:11;-9740.84;;;11.58;100.00
9460;BME280;4768;42.664;23.240;2023-05-23T06:16:37;-9759.16;;;12.22;100.00
9460;BME280;4768;42.664;23.240;2023-05-23T06:19:04;-9767.84;;;12.52;100.00
9460;BME280;4768;42.664;23.240;2023-05-23T06:21:32;-9764.72;;;12.41;100.00
9460;BME280;4768;42.664;23.240;2023-05-23T06:23:59;-9770.53;;;12.61;100.00
9460;BME280;4768;42.664;23.240;2023-05-23T06:26:25;-9773.66;;;12.72;100.00
9460;BME280;4768;42.664;23.240;2023-05-23T06:28:53;-9775.22;;;12.78;100.00
9460;BME280;4768;42.664;23.240;2023-05-23T06:31:20;-9781.34;;;12.99;100.00
9460;BME280;4768;42.664;23.240;2023-05-23T06:33:47;-9795.00;;;13.47;100.00
9460;BME280;4768;42.664;23.240;2023-05-23T06:36:13;-9799.69;;;13.63;100.00
9460;BME280;4768;42.664;23.240;2023-05-23T06:38:41;-9808.78;;;13.95;100.00
9460;BME280;4768;42.664;23.240;2023-05-23T06:41:08;-9801.69;;;13.70;100.00
9460;BME280;4768;42.664;23.240;2023-05-23T06:43:35;-9812.63;;;14.08;100.00
9460;BME280;4768;42.664;23.240;2023-05-23T06:46:02;-9817.06;;;14.23;100.00
9460;BME280;4768;42.664;23.240;2023-05-23T06:48:29;-9817.06;;;14.23;100.00
9460;BME280;4768;42.664;23.240;2023-05-23T06:50:55;-9809.38;;;13.97;100.00
9460;BME280;4768;42.664;23.240;2023-05-23T06:53:22;-9817.34;;;14.24;100.00
9460;BME280;4768;42.664;23.240;2023-05-23T06:55:50;-9827.88;;;14.61;100.00
9460;BME280;4768;42.664;23.240;2023-05-23T06:58:17;-9831.28;;;14.73;100.00
9460;BME280;4768;42.664;23.240;2023-05-23T07:00:43;-9839.97;;;15.03;100.00
9460;BME280;4768;42.664;23.240;2023-05-23T07:03:10;-9836.97;;;14.93;100.00
9460;BME280;4768;42.664;23.240;2023-05-23T07:05:37;-9833.84;;;14.82;100.00
9460;BME280;4768;42.664;23.240;2023-05-23T07:08:04;-9835.53;;;14.88;100.00
9460;BME280;4768;42.664;23.240;2023-05-23T07:10:31;-9841.94;;;15.10;100.00
9460;BME280;4768;42.664;23.240;2023-05-23T07:13:00;-9837.97;;;14.96;100.00
9460;BME280;4768;42.664;23.240;2023-05-23T07:15:27;-9846.66;;;15.26;100.00
9460;BME280;4768;42.664;23.240;2023-05-23T07:17:53;-9851.50;;;15.43;100.00
9460;BME280;4768;42.664;23.240;2023-05-23T07:20:20;-9845.53;;;15.22;100.00
9460;BME280;4768;42.664;23.240;2023-05-23T07:22:47;-9841.38;;;15.08;100.00
9460;BME280;4768;42.664;23.240;2023-05-23T07:25:15;-9848.38;;;15.32;100.00
9460;BME280;4768;42.664;23.240;2023-05-23T07:27:42;-9861.59;;;15.78;100.00
9460;BME280;4768;42.664;23.240;2023-05-23T07:30:11;-9865.88;;;15.93;100.00
9460;BME280;4768;42.664;23.240;2023-05-23T07:32:38;-9877.84;;;16.35;100.00
9460;BME280;4768;42.664;23.240;2023-05-23T07:35:06;-9875.84;;;16.28;100.00
9460;BME280;4768;42.664;23.240;2023-05-23T07:37:32;-9869.44;;;16.05;100.00
9460;BME280;4768;42.664;23.240;2023-05-23T07:39:59;-9880.56;;;16.44;100.00
9460;BME280;4768;42.664;23.240;2023-05-23T07:42:26;-9865.59;;;15.92;100.00
9460;BME280;4768;42.664;23.240;2023-05-23T07:44:53;-9874.13;;;16.22;100.00
9460;BME280;4768;42.664;23.240;2023-05-23T07:47:21;-9883.13;;;16.53;100.00
9460;BME280;4768;42.664;23.240;2023-05-23T07:49:48;-9862.59;;;15.82;100.00
9460;BME280;4768;42.664;23.240;2023-05-23T07:52:16;-9883.56;;;16.54;100.00
9460;BME280;4768;42.664;23.240;2023-05-23T07:54:43;-9890.53;;;16.79;100.00
9460;BME280;4768;42.664;23.240;2023-05-23T07:57:09;-9895.09;;;16.94;100.00
9460;BME280;4768;42.664;23.240;2023-05-23T07:59:37;-9891.53;;;16.82;100.00
9460;BME280;4768;42.664;23.240;2023-05-23T08:02:04;-9894.81;;;16.93;100.00
9460;BME280;4768;42.664;23.240;2023-05-23T08:04:32;-9896.38;;;16.99;100.00
9460;BME280;4768;42.664;23.240;2023-05-23T08:06:59;-9911.06;;;17.50;100.00
9460;BME280;4768;42.664;23.240;2023-05-23T08:09:25;-9909.06;;;17.43;100.00
9460;BME280;4768;42.664;23.240;2023-05-23T08:11:52;-9900.66;;;17.14;100.00
9460;BME280;4768;42.664;23.240;2023-05-23T08:14:19;-9903.66;;;17.24;100.00
9460;BME280;4768;42.664;23.240;2023-05-23T08:16:46;-9912.22;;;17.54;100.00
9460;BME280;4768;42.664;23.240;2023-05-23T08:19:13;-9898.78;;;17.07;100.00
9460;BME280;4768;42.664;23.240;2023-05-23T08:21:41;-9922.75;;;17.91;100.00
9460;BME280;4768;42.664;23.240;2023-05-23T08:24:08;-9916.47;;;17.69;100.00
9460;BME280;4768;42.664;23.240;2023-05-23T08:26:37;-9928.03;;;18.09;100.00
9460;BME280;4768;42.664;23.240;2023-05-23T08:29:04;-9913.78;;;17.59;100.00
9460;BME280;4768;42.664;23.240;2023-05-23T08:31:31;-9919.34;;;17.79;100.00
9460;BME280;4768;42.664;23.240;2023-05-23T08:33:58;-9926.75;;;18.04;100.00
9460;BME280;4768;42.664;23.240;2023-05-23T08:36:25;-9917.91;;;17.74;100.00
9460;BME280;4768;42.664;23.240;2023-05-23T08:38:53;-9901.78;;;17.18;100.00
9460;BME280;4768;42.664;23.240;2023-05-23T08:41:21;-9924.59;;;17.97;100.00
9460;BME280;4768;42.664;23.240;2023-05-23T08:43:48;-9932.03;;;18.23;100.00
9460;BME280;4768;42.664;23.240;2023-05-23T08:46:16;-9932.19;;;18.23;100.00
9460;BME280;4768;42.664;23.240;2023-05-23T08:48:43;-9933.75;;;18.29;100.00
9460;BME280;4768;42.664;23.240;2023-05-23T08:51:14;-9942.88;;;18.60;100.00
9460;BME280;4768;42.664;23.240;2023-05-23T08:53:44;-9926.59;;;18.04;100.00
9460;BME280;4768;42.664;23.240;2023-05-23T08:56:14;-9950.28;;;18.86;100.00
9460;BME280;4768;42.664;23.240;2023-05-23T08:58:41;-9966.28;;;19.41;100.00
9460;BME280;4768;42.664;23.240;2023-05-23T09:01:08;-9945.44;;;18.69;100.00
9460;BME280;4768;42.664;23.240;2023-05-23T09:03:36;-9947.16;;;18.75;100.00
9460;BME280;4768;42.664;23.240;2023-05-23T09:06:05;-9948.00;;;18.78;100.00
9460;BME280;4768;42.664;23.240;2023-05-23T09:08:32;-9950.44;;;18.87;100.00
9460;BME280;4768;42.664;23.240;2023-05-23T09:11:00;-9950.56;;;18.87;100.00
9460;BME280;4768;42.664;23.240;2023-05-23T09:13:28;-9958.88;;;19.16;100.00
9460;BME280;4768;42.664;23.240;2023-05-23T09:16:00;-9958.88;;;19.16;100.00
9460;BME280;4768;42.664;23.240;2023-05-23T09:18:28;-9957.56;;;19.11;100.00
9460;BME280;4768;42.664;23.240;2023-05-23T09:20:58;-9960.72;;;19.22;100.00
9460;BME280;4768;42.664;23.240;2023-05-23T09:23:25;-9957.56;;;19.11;100.00
9460;BME280;4768;42.664;23.240;2023-05-23T09:25:51;-9967.56;;;19.46;100.00
9460;BME280;4768;42.664;23.240;2023-05-23T09:28:18;-9967.44;;;19.45;100.00
9460;BME280;4768;42.664;23.240;2023-05-23T09:30:46;10528.16;;;19.40;100.00
9460;BME280;4768;42.664;23.240;2023-05-23T09:33:13;19257.06;;;19.80;100.00
9460;BME280;4768;42.664;23.240;2023-05-23T09:35:43;31864.81;;;19.80;100.00
9460;BME280;4768;42.664;23.240;2023-05-23T09:38:11;44851.53;;;19.45;100.00
9460;BME280;4768;42.664;23.240;2023-05-23T09:40:43;28713.41;;;19.95;100.00
9460;BME280;4768;42.664;23.240;2023-05-23T09:43:10;41367.47;;;20.09;100.00
9460;BME280;4768;42.664;23.240;2023-05-23T09:45:37;101302.94;;;19.53;100.00
9460;BME280;4768;42.664;23.240;2023-05-23T09:48:10;111016.50;;;19.74;100.00
9460;BME280;4768;42.664;23.240;2023-05-23T09:50:38;92066.03;;;19.94;100.00
9460;BME280;4768;42.664;23.240;2023-05-23T09:53:05;171186.91;;;19.68;100.00
9460;BME280;4768;42.664;23.240;2023-05-23T09:55:32;172199.94;;;19.67;100.00
9460;BME280;4768;42.664;23.240;2023-05-23T09:57:59;172284.41;;;19.98;100.00
9460;BME280;4768;42.664;23.240;2023-05-23T10:00:26;172407.75;;;20.43;100.00
9460;BME280;4768;42.664;23.240;2023-05-23T10:02:57;172224.06;;;19.76;100.00
9460;BME280;4768;42.664;23.240;2023-05-23T10:05:34;172245.47;;;19.84;100.00
9460;BME280;4768;42.664;23.240;2023-05-23T10:08:05;172201.25;;;19.67;100.00
9460;BME280;4768;42.664;23.240;2023-05-23T10:10:34;172433.22;;;20.53;100.00
9460;BME280;4768;42.664;23.240;2023-05-23T10:13:03;172379.63;;;20.33;100.00
9460;BME280;4768;42.664;23.240;2023-05-23T10:15:35;172346.06;;;20.21;100.00
9460;BME280;4768;42.664;23.240;2023-05-23T10:18:08;172237.44;;;19.81;100.00
9460;BME280;4768;42.664;23.240;2023-05-23T10:20:39;172250.81;;;19.86;100.00
9460;BME280;4768;42.664;23.240;2023-05-23T10:23:08;172308.53;;;20.07;100.00
9460;BME280;4768;42.664;23.240;2023-05-23T10:25:36;172407.75;;;20.43;100.00
9460;BME280;4768;42.664;23.240;2023-05-23T10:28:03;172445.28;;;20.57;100.00
9460;BME280;4768;42.664;23.240;2023-05-23T10:30:30;172511.03;;;20.82;100.00
9460;BME280;4768;42.664;23.240;2023-05-23T10:32:58;172445.28;;;20.57;100.00
9460;BME280;4768;42.664;23.240;2023-05-23T10:35:38;172410.41;;;20.44;100.00
9460;BME280;4768;42.664;23.240;2023-05-23T10:38:14;172391.69;;;20.38;100.00
9460;BME280;4768;42.664;23.240;2023-05-23T10:40:49;172378.25;;;20.33;100.00
9460;BME280;4768;42.664;23.240;2023-05-23T10:43:24;172395.69;;;20.39;100.00
9460;BME280;4768;42.664;23.240;2023-05-23T10:45:53;172520.44;;;20.85;100.00
9460;BME280;4768;42.664;23.240;2023-05-23T10:48:21;172630.41;;;21.26;100.00
9460;BME280;4768;42.664;23.240;2023-05-23T10:51:03;172452.00;;;20.60;100.00
9460;BME280;4768;42.664;23.240;2023-05-23T10:53:31;172398.34;;;20.40;100.00
9460;BME280;4768;42.664;23.240;2023-05-23T10:56:00;172409.09;;;20.44;100.00
9460;BME280;4768;42.664;23.240;2023-05-23T10:58:28;172486.91;;;20.73;100.00
9460;BME280;4768;42.664;23.240;2023-05-23T11:00:59;172413.13;;;20.45;100.00
9460;BME280;4768;42.664;23.240;2023-05-23T11:03:30;172562.00;;;21.00;100.00
9460;BME280;4768;42.664;23.240;2023-05-23T11:05:58;172478.84;;;20.70;100.00
9460;BME280;4768;42.664;23.240;2023-05-23T11:08:26;172334.00;;;20.16;100.00
9460;BME280;4768;42.664;23.240;2023-05-23T11:10:55;172366.16;;;20.28;100.00
9460;BME280;4768;42.664;23.240;2023-05-23T11:13:24;172433.22;;;20.53;100.00
9460;BME280;4768;42.664;23.240;2023-05-23T11:15:51;172362.16;;;20.27;100.00
9460;BME280;4768;42.664;23.240;2023-05-23T11:18:22;172407.75;;;20.43;100.00
9460;BME280;4768;42.664;23.240;2023-05-23T11:20:53;172520.44;;;20.85;100.00
9460;BME280;4768;42.664;23.240;2023-05-23T11:23:21;172580.81;;;21.07;100.00
9460;BME280;4768;42.664;23.240;2023-05-23T11:25:50;172578.09;;;21.06;100.00
9460;BME280;4768;42.664;23.240;2023-05-23T11:28:18;172591.56;;;21.11;100.00
9460;BME280;4768;42.664;23.240;2023-05-23T11:30:47;172642.50;;;21.30;100.00
9460;BME280;4768;42.664;23.240;2023-05-23T11:33:15;172761.94;;;21.74;100.00
9460;BME280;4768;42.664;23.240;2023-05-23T11:35:44;172704.28;;;21.53;100.00
9460;BME280;4768;42.664;23.240;2023-05-23T11:38:12;172740.50;;;21.66;100.00
9460;BME280;4768;42.664;23.240;2023-05-23T11:40:40;172689.50;;;21.47;100.00
9460;BME280;4768;42.664;23.240;2023-05-23T11:43:10;172672.03;;;21.41;100.00
9460;BME280;4768;42.664;23.240;2023-05-23T11:45:37;172784.78;;;21.83;100.00
9460;BME280;4768;42.664;23.240;2023-05-23T11:48:06;172806.22;;;21.90;100.00
9460;BME280;4768;42.664;23.240;2023-05-23T11:50:33;172806.22;;;21.90;100.00
9460;BME280;4768;42.664;23.240;2023-05-23T11:53:07;172827.72;;;21.98;100.00
9460;BME280;4768;42.664;23.240;2023-05-23T11:55:34;172725.72;;;21.61;100.00
9460;BME280;4768;42.664;23.240;2023-05-23T11:58:01;172625.06;;;21.24;100.00
9460;BME280;4768;42.664;23.240;2023-05-23T12:00:29;172633.13;;;21.27;100.00
9460;BME280;4768;42.664;23.240;2023-05-23T12:02:55;172685.47;;;21.46;100.00
9460;BME280;4768;42.664;23.240;2023-05-23T12:05:22;172743.19;;;21.67;100.00
9460;BME280;4768;42.664;23.240;2023-05-23T12:07:49;172721.69;;;21.59;100.00
9460;BME280;4768;42.664;23.240;2023-05-23T12:10:16;172696.22;;;21.50;100.00
9460;BME280;4768;42.664;23.240;2023-05-23T12:12:44;172674.69;;;21.42;100.00
9460;BME280;4768;42.664;23.240;2023-05-23T12:15:12;172678.69;;;21.43;100.00
9460;BME280;4768;42.664;23.240;2023-05-23T12:17:43;172849.19;;;22.06;100.00
9460;BME280;4768;42.664;23.240;2023-05-23T12:20:11;172882.78;;;22.19;100.00
9460;BME280;4768;42.664;23.240;2023-05-23T12:22:37;172796.84;;;21.87;100.00
9460;BME280;4768;42.664;23.240;2023-05-23T12:25:07;172796.84;;;21.87;100.00
9460;BME280;4768;42.664;23.240;2023-05-23T12:27:34;172712.34;;;21.56;100.00
9460;BME280;4768;42.664;23.240;2023-05-23T12:30:06;172776.72;;;21.80;100.00
9460;BME280;4768;42.664;23.240;2023-05-23T12:32:33;172979.47;;;22.54;100.00
9460;BME280;4768;42.664;23.240;2023-05-23T12:35:03;172767.34;;;21.76;98.82
9460;BME280;4768;42.664;23.240;2023-05-23T12:37:30;172658.59;;;21.36;100.00
9460;BME280;4768;42.664;23.240;2023-05-23T12:39:56;172747.22;;;21.69;100.00
9460;BME280;4768;42.664;23.240;2023-05-23T12:42:23;172737.81;;;21.65;100.00
9460;BME280;4768;42.664;23.240;2023-05-23T12:44:50;172706.97;;;21.54;100.00
9460;BME280;4768;42.664;23.240;2023-05-23T12:47:17;172622.38;;;21.23;100.00
9460;BME280;4768;42.664;23.240;2023-05-23T12:49:44;172535.22;;;20.90;100.00
9460;BME280;4768;42.664;23.240;2023-05-23T12:52:13;172553.97;;;20.97;100.00
9460;BME280;4768;42.664;23.240;2023-05-23T12:54:40;172627.75;;;21.25;100.00
9460;BME280;4768;42.664;23.240;2023-05-23T12:57:07;172757.94;;;21.73;100.00
9460;BME280;4768;42.664;23.240;2023-05-23T12:59:34;172765.97;;;21.76;100.00
9460;BME280;4768;42.664;23.240;2023-05-23T13:02:01;172811.63;;;21.92;100.00
9460;BME280;4768;42.664;23.240;2023-05-23T13:04:27;172911.00;;;22.29;100.00
9460;BME280;4768;42.664;23.240;2023-05-23T13:06:55;172779.44;;;21.81;100.00